createdAt,value
2018-11-20T00:01:21.796Z,10.80
2018-11-20T00:03:51.377Z,10.70
2018-11-20T00:06:21.295Z,10.60
2018-11-20T00:08:50.882Z,10.50
2018-11-20T00:11:20.799Z,10.40
2018-11-20T00:13:50.654Z,10.30
2018-11-20T00:16:19.997Z,10.30
2018-11-20T00:18:49.498Z,10.20
2018-11-20T00:21:19.234Z,10.10
2018-11-20T00:23:48.764Z,10.10
2018-11-20T00:26:18.246Z,10.00
2018-11-20T00:28:53.480Z,9.80
2018-11-20T00:31:25.354Z,9.70
2018-11-20T00:33:55.024Z,9.70
2018-11-20T00:36:24.354Z,9.60
2018-11-20T00:38:53.875Z,9.50
2018-11-20T00:41:23.157Z,9.40
2018-11-20T00:43:52.790Z,9.40
2018-11-20T00:46:22.595Z,9.30
2018-11-20T00:48:55.056Z,9.20
2018-11-20T00:51:25.629Z,9.10
2018-11-20T00:53:55.266Z,9.10
2018-11-20T00:56:29.847Z,9.10
2018-11-20T00:58:59.833Z,9.00
2018-11-20T01:01:29.860Z,9.00
2018-11-20T01:03:58.901Z,8.90
2018-11-20T01:06:28.469Z,8.90
2018-11-20T01:08:58.424Z,8.80
2018-11-20T01:11:28.012Z,8.80
2018-11-20T01:13:57.655Z,8.70
2018-11-20T01:16:28.063Z,8.60
2018-11-20T01:18:57.773Z,8.60
2018-11-20T01:21:27.228Z,8.50
2018-11-20T01:23:56.711Z,8.50
2018-11-20T01:26:26.567Z,8.50
2018-11-20T01:28:56.432Z,8.40
2018-11-20T01:31:26.904Z,8.40
2018-11-20T01:33:57.167Z,8.30
2018-11-20T01:36:26.400Z,8.30
2018-11-20T01:38:55.901Z,8.30
2018-11-20T01:41:25.480Z,8.20
2018-11-20T01:43:56.517Z,8.20
2018-11-20T01:46:26.627Z,8.20
2018-11-20T01:48:56.388Z,8.20
2018-11-20T01:51:26.890Z,8.10
2018-11-20T01:53:56.701Z,8.10
2018-11-20T01:56:26.082Z,8.00
2018-11-20T01:58:55.628Z,8.00
2018-11-20T02:01:25.588Z,7.90
2018-11-20T02:03:55.047Z,7.90
2018-11-20T02:06:24.659Z,7.90
2018-11-20T02:08:57.170Z,7.80
2018-11-20T02:11:27.243Z,7.80
2018-11-20T02:13:56.711Z,7.80
2018-11-20T02:16:27.098Z,7.70
2018-11-20T02:18:56.877Z,7.70
2018-11-20T02:21:26.385Z,7.70
2018-11-20T02:23:55.831Z,7.70
2018-11-20T02:26:28.452Z,7.70
2018-11-20T02:28:59.112Z,7.70
2018-11-20T02:31:29.627Z,7.70
2018-11-20T02:33:59.292Z,7.70
2018-11-20T02:39:13.143Z,7.70
2018-11-20T02:41:43.638Z,7.60
2018-11-20T02:44:13.243Z,7.60
2018-11-20T02:46:43.292Z,7.50
2018-11-20T02:49:13.456Z,7.50
2018-11-20T02:51:43.436Z,7.50
2018-11-20T02:54:17.489Z,7.40
2018-11-20T02:56:48.974Z,7.50
2018-11-20T02:59:19.450Z,7.50
2018-11-20T03:01:54.449Z,7.50
2018-11-20T03:04:24.691Z,7.50
2018-11-20T03:06:54.486Z,7.50
2018-11-20T03:09:25.885Z,7.50
2018-11-20T03:11:55.654Z,7.40
2018-11-20T03:14:27.247Z,7.30
2018-11-20T03:16:57.090Z,7.30
2018-11-20T03:19:27.807Z,7.30
2018-11-20T03:21:58.090Z,7.20
2018-11-20T03:24:27.977Z,7.30
2018-11-20T03:26:59.000Z,7.30
2018-11-20T03:29:28.786Z,7.20
2018-11-20T03:31:58.688Z,7.10
2018-11-20T03:34:29.998Z,7.10
2018-11-20T03:37:00.733Z,7.10
2018-11-20T03:39:31.029Z,7.10
2018-11-20T03:42:00.455Z,7.10
2018-11-20T03:44:30.098Z,7.10
2018-11-20T03:47:00.867Z,7.10
2018-11-20T03:49:30.382Z,7.00
2018-11-20T03:52:00.291Z,7.00
2018-11-20T03:54:29.777Z,7.00
2018-11-20T03:56:59.633Z,7.00
2018-11-20T03:59:29.762Z,7.00
2018-11-20T04:02:00.106Z,7.00
2018-11-20T04:04:30.024Z,7.00
2018-11-20T04:07:00.547Z,7.00
2018-11-20T04:09:30.439Z,7.00
2018-11-20T04:12:00.325Z,7.00
2018-11-20T04:14:30.036Z,7.00
2018-11-20T04:16:59.652Z,7.00
2018-11-20T04:19:34.824Z,7.00
2018-11-20T04:22:05.421Z,7.00
2018-11-20T04:24:35.087Z,6.90
2018-11-20T04:27:06.007Z,6.90
2018-11-20T04:29:35.656Z,6.80
2018-11-20T04:32:05.279Z,6.80
2018-11-20T04:34:34.565Z,6.80
2018-11-20T04:37:05.130Z,6.70
2018-11-20T04:39:34.390Z,6.70
2018-11-20T04:42:03.878Z,6.70
2018-11-20T04:44:33.293Z,6.60
2018-11-20T04:47:03.050Z,6.60
2018-11-20T04:49:32.546Z,6.60
2018-11-20T04:52:02.262Z,6.60
2018-11-20T04:54:32.022Z,6.60
2018-11-20T04:57:01.612Z,6.50
2018-11-20T04:59:31.529Z,6.50
2018-11-20T05:02:01.153Z,6.50
2018-11-20T05:04:31.004Z,6.40
2018-11-20T05:07:00.494Z,6.40
2018-11-20T05:09:31.068Z,6.30
2018-11-20T05:12:01.378Z,6.30
2018-11-20T05:14:30.672Z,6.30
2018-11-20T05:17:01.412Z,6.30
2018-11-20T05:19:31.178Z,6.30
2018-11-20T05:22:02.353Z,6.30
2018-11-20T05:24:33.926Z,6.30
2018-11-20T05:27:03.815Z,6.20
2018-11-20T05:29:35.572Z,6.20
2018-11-20T05:32:06.031Z,6.30
2018-11-20T05:34:39.492Z,6.20
2018-11-20T05:37:08.997Z,6.20
2018-11-20T05:39:39.539Z,6.20
2018-11-20T05:42:10.435Z,6.20
2018-11-20T05:44:40.777Z,6.20
2018-11-20T05:47:10.614Z,6.20
2018-11-20T05:49:40.887Z,6.20
2018-11-20T05:52:10.683Z,6.20
2018-11-20T05:54:41.237Z,6.20
2018-11-20T05:57:11.101Z,6.20
2018-11-20T05:59:41.827Z,6.20
2018-11-20T06:02:11.547Z,6.20
2018-11-20T06:04:41.264Z,6.10
2018-11-20T06:07:10.762Z,6.10
2018-11-20T06:09:40.393Z,6.10
2018-11-20T06:12:09.987Z,6.10
2018-11-20T06:14:39.589Z,6.00
2018-11-20T06:17:09.099Z,6.00
2018-11-20T06:19:38.927Z,6.00
2018-11-20T06:22:08.751Z,6.00
2018-11-20T06:24:39.050Z,6.00
2018-11-20T06:27:09.176Z,5.90
2018-11-20T06:29:38.538Z,5.90
2018-11-20T06:32:07.904Z,5.90
2018-11-20T06:34:37.661Z,5.90
2018-11-20T06:37:07.406Z,5.80
2018-11-20T06:39:37.075Z,5.80
2018-11-20T06:42:06.738Z,5.80
2018-11-20T06:44:36.759Z,5.80
2018-11-20T06:47:06.268Z,5.80
2018-11-20T06:49:36.055Z,5.80
2018-11-20T06:52:06.433Z,5.80
2018-11-20T06:54:37.393Z,5.70
2018-11-20T06:57:06.970Z,5.60
2018-11-20T06:59:36.496Z,5.50
2018-11-20T07:02:06.154Z,5.50
2018-11-20T07:04:35.764Z,5.50
2018-11-20T07:07:06.063Z,5.50
2018-11-20T07:09:35.868Z,5.60
2018-11-20T07:12:05.902Z,5.60
2018-11-20T07:14:36.018Z,5.50
2018-11-20T07:17:05.796Z,5.50
2018-11-20T07:19:35.827Z,5.50
2018-11-20T07:22:05.660Z,5.50
2018-11-20T07:24:35.559Z,5.50
2018-11-20T07:27:05.485Z,5.40
2018-11-20T07:29:35.413Z,5.40
2018-11-20T07:32:05.319Z,5.30
2018-11-20T07:34:35.091Z,5.30
2018-11-20T07:37:05.630Z,5.30
2018-11-20T07:39:34.913Z,5.30
2018-11-20T07:42:05.193Z,5.30
2018-11-20T07:44:34.672Z,5.20
2018-11-20T07:47:05.933Z,5.20
2018-11-20T07:49:35.448Z,5.10
2018-11-20T07:52:06.546Z,5.20
2018-11-20T07:54:36.354Z,5.20
2018-11-20T07:57:06.253Z,5.20
2018-11-20T07:59:36.162Z,5.20
2018-11-20T08:02:05.564Z,5.20
2018-11-20T08:04:35.404Z,5.20
2018-11-20T08:07:05.249Z,5.20
2018-11-20T08:09:34.999Z,5.10
2018-11-20T08:12:04.473Z,5.10
2018-11-20T08:14:34.258Z,5.10
2018-11-20T08:17:03.773Z,5.10
2018-11-20T08:19:33.481Z,5.10
2018-11-20T08:22:03.500Z,5.00
2018-11-20T08:24:32.990Z,5.00
2018-11-20T08:27:02.563Z,5.00
2018-11-20T08:29:32.406Z,5.00
2018-11-20T08:32:02.548Z,5.00
2018-11-20T08:34:33.092Z,5.00
2018-11-20T08:37:02.543Z,5.00
2018-11-20T08:39:32.335Z,5.00
2018-11-20T08:42:03.009Z,5.00
2018-11-20T08:44:33.073Z,4.90
2018-11-20T08:47:02.463Z,4.90
2018-11-20T08:49:32.130Z,4.90
2018-11-20T08:52:02.464Z,4.90
2018-11-20T08:54:31.987Z,4.90
2018-11-20T08:57:02.832Z,4.80
2018-11-20T08:59:32.656Z,4.90
2018-11-20T09:02:02.585Z,4.80
2018-11-20T09:04:32.180Z,4.80
2018-11-20T09:07:01.670Z,4.80
2018-11-20T09:09:31.190Z,4.90
2018-11-20T09:12:00.789Z,4.80
2018-11-20T09:14:30.635Z,4.90
2018-11-20T09:17:00.239Z,4.90
2018-11-20T09:19:30.034Z,4.90
2018-11-20T09:21:59.611Z,4.90
2018-11-20T09:24:29.174Z,4.90
2018-11-20T09:26:59.573Z,4.90
2018-11-20T09:29:29.414Z,4.90
2018-11-20T09:32:00.090Z,5.00
2018-11-20T09:34:29.847Z,5.00
2018-11-20T09:37:00.238Z,5.00
2018-11-20T09:39:30.247Z,5.00
2018-11-20T09:41:59.730Z,5.10
2018-11-20T09:44:29.210Z,5.10
2018-11-20T09:46:59.150Z,5.10
2018-11-20T09:49:28.900Z,5.10
2018-11-20T09:51:58.369Z,5.10
2018-11-20T09:54:28.026Z,5.20
2018-11-20T09:56:57.924Z,5.20
2018-11-20T09:59:28.273Z,5.20
2018-11-20T10:01:58.207Z,5.30
2018-11-20T10:04:27.748Z,5.20
2018-11-20T10:06:57.508Z,5.30
2018-11-20T10:09:27.248Z,5.30
2018-11-20T10:11:57.811Z,5.20
2018-11-20T10:14:28.692Z,5.20
2018-11-20T10:16:59.272Z,5.20
2018-11-20T10:19:28.810Z,5.20
2018-11-20T10:21:58.739Z,5.20
2018-11-20T10:24:28.016Z,5.20
2018-11-20T10:26:57.604Z,5.30
2018-11-20T10:29:27.564Z,5.20
2018-11-20T10:31:57.632Z,5.20
2018-11-20T10:34:27.334Z,5.30
2018-11-20T10:36:56.861Z,5.30
2018-11-20T10:39:27.905Z,5.30
2018-11-20T10:41:58.638Z,5.30
2018-11-20T10:44:28.324Z,5.30
2018-11-20T10:46:58.049Z,5.20
2018-11-20T10:49:27.890Z,5.30
2018-11-20T10:51:57.458Z,5.30
2018-11-20T10:54:27.050Z,5.30
2018-11-20T10:56:57.170Z,5.30
2018-11-20T10:59:27.901Z,5.20
2018-11-20T11:01:57.819Z,5.20
2018-11-20T11:04:29.736Z,5.20
2018-11-20T11:07:00.673Z,5.10
2018-11-20T11:09:31.761Z,5.10
2018-11-20T11:12:03.414Z,5.10
2018-11-20T11:14:33.275Z,5.10
2018-11-20T11:17:02.957Z,5.10
2018-11-20T11:19:32.552Z,5.00
2018-11-20T11:22:02.023Z,5.00
2018-11-20T11:24:32.092Z,5.00
2018-11-20T11:27:01.794Z,5.00
2018-11-20T11:29:31.397Z,5.00
2018-11-20T11:32:00.929Z,5.00
2018-11-20T11:34:30.663Z,4.90
2018-11-20T11:37:00.439Z,4.90
2018-11-20T11:39:30.068Z,4.90
2018-11-20T11:41:59.998Z,4.90
2018-11-20T11:44:29.369Z,4.80
2018-11-20T11:46:58.914Z,4.70
2018-11-20T11:49:28.657Z,4.60
2018-11-20T11:51:58.073Z,4.60
2018-11-20T11:54:27.648Z,4.70
2018-11-20T11:56:57.135Z,4.70
2018-11-20T11:59:27.714Z,4.70
